Archival Weather

Eureka

Eureka, Canada (CWEU)

Report from: Tuesday, May 21, 2024 3:00 AM CDT
Current time: Saturday, June 22, 2024 3:33 AM CDT

Current weather – Weather history – Daily summaries
Weather forecast

Temperature-8.0°C (17.6°F)
Wind chill-15.4°C (4.3°F)
Dew point-11.0°C (12.2°F)
Winds 11 kts (5.7 m/s, 12.7 mph) North (10°)
Visibility15 mi. (24.1 km)
Clouds Few clouds 2,600 ft. (792 m)
Scattered clouds 3,200 ft. (975 m)
Ceiling: Broken clouds 7,000 ft. (2,134 m)
Altimeter30.26 in.Hg (1025 mB)
Relative humidity79 %
Density altitude-3,251 ft. (-991 m)
Sea-level pressure102.6 kPa (1026 mB, 30.29 in.Hg)
Flight conditions Visual Meteorological Conditions
Raw dataCWEU 210800Z 01011KT 15SM FEW026 SCT032 BKN070 M08/M11 A3026 RMK SC1SC3AC2 SC TR SLP259
An error has occurred. This application may no longer respond until reloaded. Reload 🗙